sensor_id;sensor_type;location;lat;lon;timestamp;P1;durP1;ratioP1;P2;durP2;ratioP2
17848;SDS011;9050;48.746;9.232;2023-03-14T00:01:53;0.90;;;0.90;;
17848;SDS011;9050;48.746;9.232;2023-03-14T00:04:20;0.80;;;0.80;;
17848;SDS011;9050;48.746;9.232;2023-03-14T00:06:49;0.90;;;0.90;;
17848;SDS011;9050;48.746;9.232;2023-03-14T00:09:15;0.90;;;0.90;;
17848;SDS011;9050;48.746;9.232;2023-03-14T00:11:43;0.63;;;0.63;;
17848;SDS011;9050;48.746;9.232;2023-03-14T00:14:09;0.63;;;0.63;;
17848;SDS011;9050;48.746;9.232;2023-03-14T00:16:36;0.90;;;0.90;;
17848;SDS011;9050;48.746;9.232;2023-03-14T00:19:03;0.70;;;0.70;;
17848;SDS011;9050;48.746;9.232;2023-03-14T00:21:30;0.90;;;0.90;;
17848;SDS011;9050;48.746;9.232;2023-03-14T00:23:59;0.60;;;0.60;;
17848;SDS011;9050;48.746;9.232;2023-03-14T00:26:25;0.80;;;0.80;;
17848;SDS011;9050;48.746;9.232;2023-03-14T00:28:52;0.80;;;0.80;;
17848;SDS011;9050;48.746;9.232;2023-03-14T00:31:20;0.90;;;0.90;;
17848;SDS011;9050;48.746;9.232;2023-03-14T00:33:47;0.90;;;0.90;;
17848;SDS011;9050;48.746;9.232;2023-03-14T00:36:14;0.70;;;0.70;;
17848;SDS011;9050;48.746;9.232;2023-03-14T00:38:43;0.90;;;0.90;;
17848;SDS011;9050;48.746;9.232;2023-03-14T00:41:13;0.70;;;0.70;;
17848;SDS011;9050;48.746;9.232;2023-03-14T00:43:42;0.90;;;0.90;;
17848;SDS011;9050;48.746;9.232;2023-03-14T00:46:09;0.90;;;0.90;;
17848;SDS011;9050;48.746;9.232;2023-03-14T00:48:36;0.97;;;0.97;;
17848;SDS011;9050;48.746;9.232;2023-03-14T00:51:04;0.63;;;0.63;;
17848;SDS011;9050;48.746;9.232;2023-03-14T00:53:34;0.80;;;0.80;;
17848;SDS011;9050;48.746;9.232;2023-03-14T00:56:03;0.80;;;0.80;;
17848;SDS011;9050;48.746;9.232;2023-03-14T00:58:32;0.60;;;0.60;;
17848;SDS011;9050;48.746;9.232;2023-03-14T01:01:02;0.90;;;0.90;;
17848;SDS011;9050;48.746;9.232;2023-03-14T01:03:31;0.90;;;0.90;;
17848;SDS011;9050;48.746;9.232;2023-03-14T01:06:06;0.80;;;0.80;;
17848;SDS011;9050;48.746;9.232;2023-03-14T01:08:33;1.00;;;1.00;;
17848;SDS011;9050;48.746;9.232;2023-03-14T01:11:04;1.00;;;1.00;;
17848;SDS011;9050;48.746;9.232;2023-03-14T01:13:33;0.70;;;0.70;;
17848;SDS011;9050;48.746;9.232;2023-03-14T01:16:01;0.80;;;0.80;;
17848;SDS011;9050;48.746;9.232;2023-03-14T01:18:29;0.80;;;0.80;;
17848;SDS011;9050;48.746;9.232;2023-03-14T01:20:56;0.70;;;0.70;;
17848;SDS011;9050;48.746;9.232;2023-03-14T01:23:23;0.80;;;0.80;;
17848;SDS011;9050;48.746;9.232;2023-03-14T01:25:50;0.80;;;0.80;;
17848;SDS011;9050;48.746;9.232;2023-03-14T01:28:16;0.90;;;0.90;;
17848;SDS011;9050;48.746;9.232;2023-03-14T01:30:45;0.60;;;0.60;;
17848;SDS011;9050;48.746;9.232;2023-03-14T01:33:12;0.70;;;0.70;;
17848;SDS011;9050;48.746;9.232;2023-03-14T01:35:39;0.60;;;0.60;;
17848;SDS011;9050;48.746;9.232;2023-03-14T01:38:06;0.90;;;0.90;;
17848;SDS011;9050;48.746;9.232;2023-03-14T01:40:33;0.80;;;0.80;;
17848;SDS011;9050;48.746;9.232;2023-03-14T01:43:13;0.80;;;0.80;;
17848;SDS011;9050;48.746;9.232;2023-03-14T01:48:53;0.80;;;0.80;;
17848;SDS011;9050;48.746;9.232;2023-03-14T01:51:29;0.90;;;0.90;;
17848;SDS011;9050;48.746;9.232;2023-03-14T01:54:02;0.70;;;0.70;;
17848;SDS011;9050;48.746;9.232;2023-03-14T01:56:35;0.90;;;0.90;;
17848;SDS011;9050;48.746;9.232;2023-03-14T01:59:03;0.97;;;0.97;;
17848;SDS011;9050;48.746;9.232;2023-03-14T02:01:32;1.03;;;1.03;;
17848;SDS011;9050;48.746;9.232;2023-03-14T02:04:02;0.90;;;0.90;;
17848;SDS011;9050;48.746;9.232;2023-03-14T02:06:34;0.80;;;0.80;;
17848;SDS011;9050;48.746;9.232;2023-03-14T02:09:08;0.90;;;0.90;;
17848;SDS011;9050;48.746;9.232;2023-03-14T02:11:34;0.80;;;0.80;;
17848;SDS011;9050;48.746;9.232;2023-03-14T02:14:02;0.97;;;0.97;;
17848;SDS011;9050;48.746;9.232;2023-03-14T02:16:30;0.90;;;0.90;;
17848;SDS011;9050;48.746;9.232;2023-03-14T02:18:57;0.73;;;0.73;;
17848;SDS011;9050;48.746;9.232;2023-03-14T02:21:27;0.67;;;0.67;;
17848;SDS011;9050;48.746;9.232;2023-03-14T02:24:06;0.83;;;0.83;;
17848;SDS011;9050;48.746;9.232;2023-03-14T02:26:38;1.07;;;1.07;;
17848;SDS011;9050;48.746;9.232;2023-03-14T02:29:11;0.90;;;0.90;;
17848;SDS011;9050;48.746;9.232;2023-03-14T02:31:38;1.07;;;1.07;;
17848;SDS011;9050;48.746;9.232;2023-03-14T02:34:05;0.80;;;0.80;;
17848;SDS011;9050;48.746;9.232;2023-03-14T02:36:32;1.00;;;1.00;;
17848;SDS011;9050;48.746;9.232;2023-03-14T02:39:01;0.90;;;0.90;;
17848;SDS011;9050;48.746;9.232;2023-03-14T02:41:33;1.03;;;1.03;;
17848;SDS011;9050;48.746;9.232;2023-03-14T02:44:00;0.90;;;0.90;;
17848;SDS011;9050;48.746;9.232;2023-03-14T02:46:28;1.00;;;1.00;;
17848;SDS011;9050;48.746;9.232;2023-03-14T02:48:57;1.00;;;1.00;;
17848;SDS011;9050;48.746;9.232;2023-03-14T02:51:28;0.90;;;0.90;;
17848;SDS011;9050;48.746;9.232;2023-03-14T02:53:55;0.90;;;0.90;;
17848;SDS011;9050;48.746;9.232;2023-03-14T02:56:22;0.90;;;0.90;;
17848;SDS011;9050;48.746;9.232;2023-03-14T02:58:49;0.77;;;0.77;;
17848;SDS011;9050;48.746;9.232;2023-03-14T03:01:16;0.80;;;0.80;;
17848;SDS011;9050;48.746;9.232;2023-03-14T03:03:44;0.90;;;0.90;;
17848;SDS011;9050;48.746;9.232;2023-03-14T03:06:11;0.80;;;0.80;;
17848;SDS011;9050;48.746;9.232;2023-03-14T03:08:38;0.80;;;0.80;;
17848;SDS011;9050;48.746;9.232;2023-03-14T03:11:05;0.70;;;0.70;;
17848;SDS011;9050;48.746;9.232;2023-03-14T03:13:33;1.10;;;1.10;;
17848;SDS011;9050;48.746;9.232;2023-03-14T03:15:59;0.93;;;0.93;;
17848;SDS011;9050;48.746;9.232;2023-03-14T03:18:27;0.80;;;0.80;;
17848;SDS011;9050;48.746;9.232;2023-03-14T03:20:55;1.00;;;1.00;;
17848;SDS011;9050;48.746;9.232;2023-03-14T03:23:25;0.80;;;0.80;;
17848;SDS011;9050;48.746;9.232;2023-03-14T03:25:52;1.07;;;1.07;;
17848;SDS011;9050;48.746;9.232;2023-03-14T03:28:19;1.00;;;1.00;;
17848;SDS011;9050;48.746;9.232;2023-03-14T03:30:46;0.80;;;0.80;;
17848;SDS011;9050;48.746;9.232;2023-03-14T03:33:13;0.90;;;0.90;;
17848;SDS011;9050;48.746;9.232;2023-03-14T03:35:44;0.93;;;0.93;;
17848;SDS011;9050;48.746;9.232;2023-03-14T03:38:13;0.80;;;0.80;;
17848;SDS011;9050;48.746;9.232;2023-03-14T03:40:41;1.03;;;1.03;;
17848;SDS011;9050;48.746;9.232;2023-03-14T03:43:09;1.00;;;1.00;;
17848;SDS011;9050;48.746;9.232;2023-03-14T03:45:36;1.00;;;1.00;;
17848;SDS011;9050;48.746;9.232;2023-03-14T03:48:03;1.10;;;1.10;;
17848;SDS011;9050;48.746;9.232;2023-03-14T03:50:30;1.10;;;1.10;;
17848;SDS011;9050;48.746;9.232;2023-03-14T03:52:57;0.73;;;0.73;;
17848;SDS011;9050;48.746;9.232;2023-03-14T03:55:25;1.13;;;1.13;;
17848;SDS011;9050;48.746;9.232;2023-03-14T03:57:54;1.00;;;1.00;;
17848;SDS011;9050;48.746;9.232;2023-03-14T04:00:21;0.90;;;0.90;;
17848;SDS011;9050;48.746;9.232;2023-03-14T04:02:48;1.10;;;1.10;;
17848;SDS011;9050;48.746;9.232;2023-03-14T04:05:14;0.90;;;0.90;;
17848;SDS011;9050;48.746;9.232;2023-03-14T04:07:41;1.07;;;1.07;;
17848;SDS011;9050;48.746;9.232;2023-03-14T04:10:09;1.00;;;1.00;;
17848;SDS011;9050;48.746;9.232;2023-03-14T04:12:37;0.90;;;0.90;;
17848;SDS011;9050;48.746;9.232;2023-03-14T04:15:05;0.70;;;0.70;;
17848;SDS011;9050;48.746;9.232;2023-03-14T04:17:33;1.00;;;1.00;;
17848;SDS011;9050;48.746;9.232;2023-03-14T04:20:00;0.80;;;0.80;;
17848;SDS011;9050;48.746;9.232;2023-03-14T04:22:28;0.97;;;0.97;;
17848;SDS011;9050;48.746;9.232;2023-03-14T04:24:55;0.83;;;0.83;;
17848;SDS011;9050;48.746;9.232;2023-03-14T04:27:21;0.80;;;0.80;;
17848;SDS011;9050;48.746;9.232;2023-03-14T04:29:50;0.80;;;0.80;;
17848;SDS011;9050;48.746;9.232;2023-03-14T04:32:17;0.90;;;0.90;;
17848;SDS011;9050;48.746;9.232;2023-03-14T04:34:44;1.30;;;1.30;;
17848;SDS011;9050;48.746;9.232;2023-03-14T04:37:11;1.10;;;1.10;;
17848;SDS011;9050;48.746;9.232;2023-03-14T04:39:38;1.00;;;1.00;;
17848;SDS011;9050;48.746;9.232;2023-03-14T04:42:05;0.70;;;0.70;;
17848;SDS011;9050;48.746;9.232;2023-03-14T04:44:32;1.17;;;1.17;;
17848;SDS011;9050;48.746;9.232;2023-03-14T04:47:00;0.80;;;0.80;;
17848;SDS011;9050;48.746;9.232;2023-03-14T04:49:27;0.80;;;0.80;;
17848;SDS011;9050;48.746;9.232;2023-03-14T04:51:54;1.10;;;1.10;;
17848;SDS011;9050;48.746;9.232;2023-03-14T04:54:21;1.10;;;1.10;;
17848;SDS011;9050;48.746;9.232;2023-03-14T04:56:48;1.10;;;1.10;;
17848;SDS011;9050;48.746;9.232;2023-03-14T04:59:15;0.90;;;0.90;;
17848;SDS011;9050;48.746;9.232;2023-03-14T05:01:42;1.00;;;1.00;;
17848;SDS011;9050;48.746;9.232;2023-03-14T05:04:10;0.80;;;0.80;;
17848;SDS011;9050;48.746;9.232;2023-03-14T05:06:37;0.93;;;0.93;;
17848;SDS011;9050;48.746;9.232;2023-03-14T05:09:04;0.90;;;0.90;;
17848;SDS011;9050;48.746;9.232;2023-03-14T05:11:31;1.10;;;1.10;;
17848;SDS011;9050;48.746;9.232;2023-03-14T05:13:58;1.00;;;1.00;;
17848;SDS011;9050;48.746;9.232;2023-03-14T05:16:25;1.10;;;1.10;;
17848;SDS011;9050;48.746;9.232;2023-03-14T05:18:52;0.83;;;0.83;;
17848;SDS011;9050;48.746;9.232;2023-03-14T05:21:20;1.00;;;1.00;;
17848;SDS011;9050;48.746;9.232;2023-03-14T05:23:47;0.93;;;0.93;;
17848;SDS011;9050;48.746;9.232;2023-03-14T05:26:14;0.87;;;0.87;;
17848;SDS011;9050;48.746;9.232;2023-03-14T05:28:42;1.00;;;1.00;;
17848;SDS011;9050;48.746;9.232;2023-03-14T05:31:09;1.20;;;1.20;;
17848;SDS011;9050;48.746;9.232;2023-03-14T05:33:36;1.07;;;1.07;;
17848;SDS011;9050;48.746;9.232;2023-03-14T05:36:03;0.90;;;0.90;;
17848;SDS011;9050;48.746;9.232;2023-03-14T05:38:33;1.00;;;1.00;;
17848;SDS011;9050;48.746;9.232;2023-03-14T05:40:59;0.80;;;0.80;;
17848;SDS011;9050;48.746;9.232;2023-03-14T05:43:26;1.13;;;1.13;;
17848;SDS011;9050;48.746;9.232;2023-03-14T05:45:53;1.00;;;1.00;;
17848;SDS011;9050;48.746;9.232;2023-03-14T05:48:20;0.93;;;0.93;;
17848;SDS011;9050;48.746;9.232;2023-03-14T05:50:48;0.80;;;0.80;;
17848;SDS011;9050;48.746;9.232;2023-03-14T05:53:20;0.90;;;0.90;;
17848;SDS011;9050;48.746;9.232;2023-03-14T05:55:50;1.00;;;1.00;;
17848;SDS011;9050;48.746;9.232;2023-03-14T05:58:17;0.80;;;0.80;;
17848;SDS011;9050;48.746;9.232;2023-03-14T06:00:44;0.90;;;0.90;;
17848;SDS011;9050;48.746;9.232;2023-03-14T06:03:11;0.90;;;0.90;;
17848;SDS011;9050;48.746;9.232;2023-03-14T06:05:38;0.90;;;0.90;;
17848;SDS011;9050;48.746;9.232;2023-03-14T22:08:54;1.20;;;1.20;;
17848;SDS011;9050;48.746;9.232;2023-03-14T22:11:21;1.07;;;1.07;;
17848;SDS011;9050;48.746;9.232;2023-03-14T22:13:48;1.00;;;1.00;;
17848;SDS011;9050;48.746;9.232;2023-03-14T22:16:15;1.30;;;1.30;;
17848;SDS011;9050;48.746;9.232;2023-03-14T22:18:42;1.33;;;1.33;;
17848;SDS011;9050;48.746;9.232;2023-03-14T22:21:09;1.47;;;1.47;;
17848;SDS011;9050;48.746;9.232;2023-03-14T22:23:36;1.47;;;1.47;;
17848;SDS011;9050;48.746;9.232;2023-03-14T22:26:04;1.23;;;1.23;;
17848;SDS011;9050;48.746;9.232;2023-03-14T22:28:31;1.63;;;1.63;;
17848;SDS011;9050;48.746;9.232;2023-03-14T22:30:58;1.43;;;1.43;;
17848;SDS011;9050;48.746;9.232;2023-03-14T22:33:25;1.57;;;1.57;;
17848;SDS011;9050;48.746;9.232;2023-03-14T22:35:51;1.20;;;1.20;;
17848;SDS011;9050;48.746;9.232;2023-03-14T22:38:18;1.40;;;1.40;;
17848;SDS011;9050;48.746;9.232;2023-03-14T22:40:46;1.43;;;1.43;;
17848;SDS011;9050;48.746;9.232;2023-03-14T22:43:14;1.50;;;1.50;;
17848;SDS011;9050;48.746;9.232;2023-03-14T22:45:41;1.40;;;1.40;;
17848;SDS011;9050;48.746;9.232;2023-03-14T22:48:08;1.47;;;1.47;;
17848;SDS011;9050;48.746;9.232;2023-03-14T22:50:36;1.90;;;1.80;;
17848;SDS011;9050;48.746;9.232;2023-03-14T22:53:03;1.43;;;1.43;;
17848;SDS011;9050;48.746;9.232;2023-03-14T22:55:30;1.40;;;1.40;;
17848;SDS011;9050;48.746;9.232;2023-03-14T22:57:57;2.00;;;1.90;;
17848;SDS011;9050;48.746;9.232;2023-03-14T23:00:25;1.50;;;1.50;;
17848;SDS011;9050;48.746;9.232;2023-03-14T23:02:53;1.57;;;1.57;;
17848;SDS011;9050;48.746;9.232;2023-03-14T23:05:20;1.93;;;1.83;;
17848;SDS011;9050;48.746;9.232;2023-03-14T23:07:47;1.53;;;1.53;;
17848;SDS011;9050;48.746;9.232;2023-03-14T23:10:15;1.30;;;1.30;;
17848;SDS011;9050;48.746;9.232;2023-03-14T23:12:42;1.90;;;1.80;;
17848;SDS011;9050;48.746;9.232;2023-03-14T23:15:10;1.80;;;1.70;;
17848;SDS011;9050;48.746;9.232;2023-03-14T23:17:41;1.37;;;1.37;;
17848;SDS011;9050;48.746;9.232;2023-03-14T23:20:09;1.60;;;1.60;;
17848;SDS011;9050;48.746;9.232;2023-03-14T23:22:37;1.93;;;1.83;;
17848;SDS011;9050;48.746;9.232;2023-03-14T23:25:04;1.33;;;1.33;;
17848;SDS011;9050;48.746;9.232;2023-03-14T23:27:31;2.17;;;2.07;;
17848;SDS011;9050;48.746;9.232;2023-03-14T23:29:58;1.57;;;1.57;;
17848;SDS011;9050;48.746;9.232;2023-03-14T23:32:26;1.23;;;1.23;;
17848;SDS011;9050;48.746;9.232;2023-03-14T23:34:54;2.20;;;2.10;;
17848;SDS011;9050;48.746;9.232;2023-03-14T23:37:21;1.90;;;1.80;;
17848;SDS011;9050;48.746;9.232;2023-03-14T23:39:49;1.33;;;1.33;;
17848;SDS011;9050;48.746;9.232;2023-03-14T23:42:16;1.50;;;1.50;;
17848;SDS011;9050;48.746;9.232;2023-03-14T23:44:44;1.80;;;1.70;;
17848;SDS011;9050;48.746;9.232;2023-03-14T23:47:10;1.90;;;1.80;;
17848;SDS011;9050;48.746;9.232;2023-03-14T23:49:37;1.60;;;1.60;;
17848;SDS011;9050;48.746;9.232;2023-03-14T23:52:07;1.40;;;1.40;;
17848;SDS011;9050;48.746;9.232;2023-03-14T23:54:34;1.90;;;1.80;;
17848;SDS011;9050;48.746;9.232;2023-03-14T23:57:01;2.20;;;2.10;;
17848;SDS011;9050;48.746;9.232;2023-03-14T23:59:28;1.50;;;1.50;;
